Time;durP1;ratioP1;P1;durP2;ratioP2;P2;SDS_P1;SDS_P2;PMS_P1;PMS_P2;Temp;Humidity;BMP_temperature;BMP_pressure;BME280_temperature;BME280_humidity;BME280_pressure;Samples;Min_cycle;Max_cycle;Signal;HPM_P1;HPM_P2
2023/10/17 00:02:22;;;;;;;5.87;2.73;;;;;;;5.49;100.00;96439.81;5036476;28;20603;-68
2023/10/17 00:04:48;;;;;;;6.00;2.80;;;;;;;5.42;100.00;96435.28;5036670;28;20646;-69
2023/10/17 00:07:17;;;;;;;6.77;2.63;;;;;;;5.41;100.00;96446.69;5036097;28;20335;-67
2023/10/17 00:09:43;;;;;;;3.90;2.27;;;;;;;5.18;100.00;96438.38;5036474;28;20286;-67
2023/10/17 00:12:25;;;;;;;5.13;2.40;;;;;;;5.18;100.00;96438.38;5035914;28;20215;-68
2023/10/17 00:14:58;;;;;;;5.70;2.30;;;;;;;5.30;100.00;96442.47;5036387;28;20766;-68
2023/10/17 00:17:24;;;;;;;4.63;2.73;;;;;;;5.19;100.00;96437.38;5036319;28;20254;-68
2023/10/17 00:19:51;;;;;;;4.70;2.70;;;;;;;5.12;100.00;96436.31;5036007;28;20201;-68
2023/10/17 00:22:19;;;;;;;5.50;3.03;;;;;;;5.41;100.00;96431.88;5036090;28;20649;-67
2023/10/17 00:24:47;;;;;;;5.43;2.97;;;;;;;5.14;100.00;96428.31;5035943;28;20284;-70
2023/10/17 00:27:13;;;;;;;3.90;2.47;;;;;;;5.09;100.00;96427.91;5035068;28;20753;-69
2023/10/17 00:29:40;;;;;;;4.47;2.20;;;;;;;5.08;100.00;96428.91;5035871;28;20197;-70
2023/10/17 00:32:08;;;;;;;5.70;2.50;;;;;;;4.98;100.00;96423.66;5036537;28;20207;-70
2023/10/17 00:34:35;;;;;;;3.87;2.63;;;;;;;4.93;100.00;96425.06;5036143;28;20224;-69
2023/10/17 00:37:06;;;;;;;5.83;2.63;;;;;;;4.87;100.00;96426.44;5035939;28;20208;-70
2023/10/17 00:39:36;;;;;;;4.23;2.03;;;;;;;4.71;100.00;96419.28;5035285;28;20293;-69
2023/10/17 00:42:27;;;;;;;3.87;2.40;;;;;;;4.74;100.00;96412.00;5035977;28;20251;-70
2023/10/17 00:44:53;;;;;;;4.57;2.57;;;;;;;4.70;100.00;96412.41;5036015;28;20208;-70
2023/10/17 00:47:22;;;;;;;5.27;2.17;;;;;;;4.60;100.00;96412.41;5035986;28;20224;-69
2023/10/17 00:49:50;;;;;;;3.63;2.13;;;;;;;4.62;100.00;96415.72;5034746;28;20698;-70
2023/10/17 00:52:24;;;;;;;3.50;2.33;;;;;;;4.73;100.00;96405.13;5035555;28;20232;-69
2023/10/17 00:54:54;;;;;;;4.30;2.70;;;;;;;4.70;100.00;96400.19;5036278;28;20256;-70
2023/10/17 00:57:26;;;;;;;5.00;2.70;;;;;;;4.64;100.00;96400.72;5035296;28;20205;-70
2023/10/17 00:59:54;;;;;;;5.27;2.40;;;;;;;4.66;100.00;96395.38;5034884;28;20674;-70
2023/10/17 01:02:22;;;;;;;5.60;2.67;;;;;;;4.53;100.00;96394.81;5036573;28;20977;-71
2023/10/17 01:04:49;;;;;;;5.07;2.87;;;;;;;4.63;100.00;96383.41;5035378;28;20209;-70
2023/10/17 01:07:23;;;;;;;4.37;2.33;;;;;;;4.50;100.00;96382.06;5035206;28;20349;-70
2023/10/17 01:09:55;;;;;;;5.63;2.50;;;;;;;4.63;100.00;96375.59;5035568;28;20239;-71
2023/10/17 01:12:26;;;;;;;4.40;2.27;;;;;;;4.54;100.00;96375.59;5036256;28;20265;-69
2023/10/17 01:14:53;;;;;;;4.83;2.53;;;;;;;4.50;100.00;96363.78;5035483;28;21168;-69
2023/10/17 01:17:23;;;;;;;5.20;3.07;;;;;;;4.33;100.00;96374.91;5035040;28;20630;-71
2023/10/17 01:19:53;;;;;;;5.80;2.80;;;;;;;4.22;100.00;96369.00;5035435;28;20620;-70
2023/10/17 01:22:20;;;;;;;5.30;2.70;;;;;;;4.23;100.00;96371.47;5035955;28;20204;-70
2023/10/17 01:24:48;;;;;;;5.20;2.47;;;;;;;4.24;100.00;96370.50;5034728;28;20223;-70
2023/10/17 01:27:14;;;;;;;3.90;2.23;;;;;;;4.18;100.00;96362.41;5035700;28;20237;-70
2023/10/17 01:29:43;;;;;;;4.43;2.67;;;;;;;4.01;100.00;96371.72;5034935;28;20215;-70
2023/10/17 01:32:10;;;;;;;3.93;2.63;;;;;;;4.15;100.00;96362.66;5036149;28;20207;-69
2023/10/17 01:34:39;;;;;;;5.57;2.60;;;;;;;4.11;100.00;96356.06;5035259;28;20229;-70
2023/10/17 01:37:07;;;;;;;8.40;2.93;;;;;;;4.11;100.00;96356.06;5035786;28;20206;-70
2023/10/17 01:39:34;;;;;;;4.97;2.63;;;;;;;3.98;100.00;96356.31;5034679;28;20207;-70
2023/10/17 01:42:04;;;;;;;6.20;3.50;;;;;;;4.08;100.00;96357.16;5036031;28;20230;-70
2023/10/17 01:44:30;;;;;;;4.83;2.90;;;;;;;4.04;100.00;96350.56;5034366;28;20264;-71
2023/10/17 01:46:57;;;;;;;5.87;3.20;;;;;;;3.96;100.00;96345.22;5034984;28;20200;-70
2023/10/17 01:49:27;;;;;;;5.03;2.90;;;;;;;4.09;100.00;96343.19;5035063;28;20230;-70
2023/10/17 01:51:57;;;;;;;7.97;3.67;;;;;;;3.94;100.00;96344.50;5035371;28;20211;-71
2023/10/17 01:54:24;;;;;;;6.63;3.13;;;;;;;3.83;100.00;96347.25;5035550;28;20225;-70
2023/10/17 01:56:50;;;;;;;4.73;2.63;;;;;;;3.94;100.00;96352.34;5034761;28;20841;-70
2023/10/17 01:59:25;;;;;;;6.17;2.90;;;;;;;3.88;100.00;96354.66;5034827;28;20204;-69
2023/10/17 02:01:56;;;;;;;6.50;3.27;;;;;;;3.91;100.00;96344.78;5034827;28;20212;-71
2023/10/17 02:04:24;;;;;;;5.57;2.80;;;;;;;3.92;100.00;96346.44;5034447;28;20224;-71
2023/10/17 02:06:51;;;;;;;6.13;3.03;;;;;;;3.89;100.00;96357.13;5035017;28;20212;-70
2023/10/17 02:09:25;;;;;;;6.87;3.27;;;;;;;3.82;100.00;96366.44;5034391;28;20608;-70
2023/10/17 02:11:54;;;;;;;4.77;2.77;;;;;;;3.84;100.00;96359.31;5035919;28;20645;-71
2023/10/17 02:14:22;;;;;;;4.80;2.57;;;;;;;3.82;100.00;96365.63;5039499;28;20230;-71
2023/10/17 02:16:49;;;;;;;3.63;2.17;;;;;;;3.78;100.00;96370.28;5037838;28;20577;-70
2023/10/17 02:19:16;;;;;;;5.77;2.67;;;;;;;3.75;100.00;96367.09;5038017;28;21020;-69
2023/10/17 02:21:43;;;;;;;9.33;3.27;;;;;;;3.77;100.00;96373.03;5039248;28;20204;-70
2023/10/17 02:24:10;;;;;;;6.37;2.60;;;;;;;3.73;100.00;96375.06;5038866;28;20249;-70
2023/10/17 02:26:43;;;;;;;5.97;2.70;;;;;;;3.75;100.00;96375.75;5037845;28;20207;-70
2023/10/17 02:29:11;;;;;;;5.10;2.87;;;;;;;3.73;100.00;96380.28;5038681;28;20771;-69
2023/10/17 02:31:40;;;;;;;4.43;2.77;;;;;;;3.83;100.00;96378.53;5037829;28;20215;-70
2023/10/17 02:34:10;;;;;;;5.10;2.97;;;;;;;3.66;100.00;96384.34;5038378;28;20238;-70
2023/10/17 02:36:36;;;;;;;8.40;2.60;;;;;;;3.69;100.00;96391.91;5037905;28;20208;-69
2023/10/17 02:39:03;;;;;;;4.83;2.57;;;;;;;3.71;100.00;96383.97;5038297;28;20196;-70
2023/10/17 02:41:31;;;;;;;5.97;2.90;;;;;;;3.67;100.00;96387.78;5038233;28;20203;-70
2023/10/17 02:43:58;;;;;;;5.33;2.93;;;;;;;3.72;100.00;96386.44;5038575;28;20663;-70
2023/10/17 02:46:27;;;;;;;4.63;2.63;;;;;;;3.73;100.00;96382.88;5037818;28;20211;-71
2023/10/17 02:48:55;;;;;;;4.53;2.47;;;;;;;3.70;100.00;96379.72;5037823;28;20235;-71
2023/10/17 02:51:36;;;;;;;4.93;2.63;;;;;;;3.49;100.00;96378.94;5038164;28;20210;-69
2023/10/17 02:54:05;;;;;;;5.40;3.10;;;;;;;3.34;100.00;96380.25;5038359;28;20243;-70
2023/10/17 02:56:36;;;;;;;7.70;3.37;;;;;;;3.37;100.00;96369.56;5037563;28;20210;-70
2023/10/17 02:59:06;;;;;;;5.10;2.60;;;;;;;3.58;100.00;96372.09;5037691;28;20224;-71
2023/10/17 03:01:33;;;;;;;3.60;2.37;;;;;;;3.59;100.00;96371.16;5038017;28;20212;-70
2023/10/17 03:04:07;;;;;;;4.90;2.37;;;;;;;3.69;100.00;96371.06;5037354;28;20328;-70
2023/10/17 03:06:35;;;;;;;5.73;2.90;;;;;;;3.55;100.00;96372.38;5037917;28;20210;-72
2023/10/17 03:09:15;;;;;;;6.13;3.23;;;;;;;3.44;100.00;96362.88;5037249;28;20222;-71
2023/10/17 03:11:50;;;;;;;5.17;2.60;;;;;;;3.46;100.00;96368.78;5037832;28;20677;-71
2023/10/17 03:14:22;;;;;;;5.77;2.93;;;;;;;3.36;100.00;96373.13;5037402;28;20616;-71
2023/10/17 03:16:52;;;;;;;6.40;3.00;;;;;;;3.40;100.00;96374.53;5037894;28;20221;-70
2023/10/17 03:19:25;;;;;;;5.43;3.17;;;;;;;3.58;100.00;96369.50;5036928;28;20578;-69
2023/10/17 03:21:53;;;;;;;5.93;3.07;;;;;;;3.43;100.00;96373.44;5038202;28;20293;-70
2023/10/17 03:24:19;;;;;;;4.80;2.20;;;;;;;3.45;100.00;96372.34;5037741;28;20231;-70
2023/10/17 03:26:54;;;;;;;5.97;3.17;;;;;;;3.34;100.00;96372.44;5037273;28;20295;-70
2023/10/17 03:29:20;;;;;;;4.87;2.80;;;;;;;3.45;100.00;96374.97;5036506;28;20718;-69
2023/10/17 03:31:48;;;;;;;6.73;2.90;;;;;;;3.42;100.00;96379.59;5037811;28;20336;-70
2023/10/17 03:34:19;;;;;;;4.97;2.63;;;;;;;3.50;100.00;96384.97;5036695;28;21177;-70
2023/10/17 03:36:49;;;;;;;7.93;2.90;;;;;;;3.59;100.00;96379.81;5037514;28;20204;-70
2023/10/17 03:39:21;;;;;;;5.90;2.87;;;;;;;3.44;100.00;96375.91;5036329;28;20212;-70
2023/10/17 03:41:48;;;;;;;4.10;2.00;;;;;;;3.45;100.00;96374.97;5037200;28;20204;-69
2023/10/17 03:44:16;;;;;;;8.03;3.13;;;;;;;3.47;100.00;96375.63;5036782;28;20317;-70
2023/10/17 03:46:46;;;;;;;4.53;2.43;;;;;;;3.54;100.00;96388.97;5037202;28;20213;-70
2023/10/17 03:49:18;;;;;;;4.67;2.37;;;;;;;3.48;100.00;96387.72;5036350;28;20608;-70
2023/10/17 03:51:52;;;;;;;4.67;2.90;;;;;;;3.38;100.00;96391.22;5037070;28;20230;-70
2023/10/17 03:54:22;;;;;;;5.87;2.93;;;;;;;3.28;100.00;96383.34;5037357;28;20314;-70
2023/10/17 03:56:55;;;;;;;5.03;3.00;;;;;;;3.35;100.00;96381.91;5037326;28;20216;-70
2023/10/17 03:59:30;;;;;;;6.93;2.77;;;;;;;3.48;100.00;96379.09;5035888;28;20267;-70
2023/10/17 04:01:58;;;;;;;5.93;3.47;;;;;;;3.62;100.00;96375.16;5037166;28;20218;-70
2023/10/17 04:04:33;;;;;;;6.17;2.77;;;;;;;3.48;100.00;96376.47;5036632;28;20284;-70
2023/10/17 04:07:03;;;;;;;4.00;2.70;;;;;;;3.57;100.00;96371.31;5036698;28;21355;-70
2023/10/17 04:09:32;;;;;;;7.00;3.37;;;;;;;3.35;100.00;96370.69;5035868;28;20234;-70
2023/10/17 04:12:02;;;;;;;7.57;3.33;;;;;;;3.48;100.00;96376.47;5037345;28;20291;-70
2023/10/17 04:14:33;;;;;;;6.70;3.20;;;;;;;3.43;100.00;96378.66;5036305;28;20223;-70
2023/10/17 04:17:02;;;;;;;5.07;2.90;;;;;;;3.40;100.00;96374.53;5037268;28;20219;-69
2023/10/17 04:19:30;;;;;;;5.33;2.77;;;;;;;3.42;100.00;96363.97;5035960;28;20279;-70
2023/10/17 04:22:07;;;;;;;5.53;2.73;;;;;;;3.48;100.00;96353.03;5035894;28;20323;-70
2023/10/17 04:24:35;;;;;;;4.23;2.57;;;;;;;3.62;100.00;96354.31;5035813;28;20242;-70
2023/10/17 04:27:19;;;;;;;4.67;2.70;;;;;;;3.44;100.00;96359.47;5036421;28;20294;-69
2023/10/17 04:29:50;;;;;;;5.20;2.63;;;;;;;3.49;100.00;96354.66;5035650;28;20720;-70
2023/10/17 04:32:19;;;;;;;8.73;2.90;;;;;;;3.48;100.00;96351.25;5036279;28;20215;-69
2023/10/17 04:34:47;;;;;;;5.23;2.80;;;;;;;3.40;100.00;96342.44;5037152;28;20258;-71
2023/10/17 04:37:16;;;;;;;5.63;3.10;;;;;;;3.41;100.00;96349.28;5035844;28;20203;-70
2023/10/17 04:39:50;;;;;;;4.77;2.70;;;;;;;3.57;100.00;96344.44;5035760;28;20202;-70
2023/10/17 04:42:25;;;;;;;6.67;3.10;;;;;;;3.52;100.00;96342.22;5036614;28;20273;-69
2023/10/17 04:44:51;;;;;;;5.53;3.03;;;;;;;3.51;100.00;96345.75;5036183;28;20232;-70
2023/10/17 04:47:28;;;;;;;4.50;2.80;;;;;;;3.40;100.00;96345.88;5035546;28;20220;-69
2023/10/17 04:49:54;;;;;;;8.83;3.47;;;;;;;3.44;100.00;96346.44;5035267;28;20943;-71
2023/10/17 04:52:28;;;;;;;7.63;3.87;;;;;;;3.53;100.00;96340.44;5036090;28;20213;-71
2023/10/17 04:55:01;;;;;;;6.27;3.03;;;;;;;3.65;100.00;96335.81;5036332;28;20229;-66
2023/10/17 04:57:56;;;;;;;5.60;3.17;;;;;;;3.53;100.00;96335.25;5035730;28;20556;-69
2023/10/17 05:00:25;;;;;;;4.23;2.80;;;;;;;3.48;100.00;96340.03;5034886;28;20333;-71
2023/10/17 05:03:02;;;;;;;8.23;3.00;;;;;;;3.57;100.00;96339.22;5035651;28;20254;-69
2023/10/17 05:05:45;;;;;;;10.33;3.33;;;;;;;3.52;100.00;96341.41;5035971;28;20751;-70
2023/10/17 05:08:32;;;;;;;9.30;4.17;;;;;;;3.45;100.00;96337.66;5035956;28;20220;-70
2023/10/17 06:17:20;;;;;;;5.67;3.43;;;;;;;4.33;100.00;96375.72;5038524;28;20222;-68
2023/10/17 06:19:47;;;;;;;6.10;3.37;;;;;;;4.22;100.00;96375.03;5038012;28;20209;-68
2023/10/17 06:30:34;;;;;;;6.40;3.40;;;;;;;4.25;100.00;96369.53;5037165;28;20234;-67
2023/10/17 06:33:21;;;;;;;8.73;3.63;;;;;;;4.36;100.00;96361.59;5037192;28;20238;-67
2023/10/17 06:35:52;;;;;;;5.30;3.47;;;;;;;4.26;100.00;96358.16;5038550;28;20615;-68
2023/10/17 06:38:21;;;;;;;7.63;3.67;;;;;;;4.27;100.00;96373.66;5037773;28;20210;-69
2023/10/17 06:40:46;;;;;;;6.90;3.27;;;;;;;4.36;100.00;96379.84;5036874;28;20264;-67
2023/10/17 06:43:27;;;;;;;7.07;3.07;;;;;;;4.43;100.00;96368.75;5038216;28;20376;-71
2023/10/17 06:45:54;;;;;;;7.50;3.77;;;;;;;4.29;100.00;96378.75;5038051;28;20296;-68
2023/10/17 06:48:31;;;;;;;7.53;3.50;;;;;;;4.48;100.00;96370.91;5037695;28;20209;-68
2023/10/17 06:53:48;;;;;;;5.77;3.33;;;;;;;4.76;100.00;96359.66;5038004;28;20235;-67
2023/10/17 06:56:15;;;;;;;7.37;3.47;;;;;;;4.84;100.00;96366.66;5037160;28;20219;-67
2023/10/17 06:58:41;;;;;;;7.13;3.53;;;;;;;4.98;100.00;96366.22;5037600;28;20208;-69
2023/10/17 07:01:19;;;;;;;12.37;3.97;;;;;;;5.31;100.00;96372.72;5037767;28;20638;-67
2023/10/17 07:03:47;;;;;;;8.53;3.57;;;;;;;5.32;100.00;96364.78;5037239;28;20227;-68
2023/10/17 07:06:14;;;;;;;10.07;4.10;;;;;;;5.30;100.00;96366.69;5036098;28;21171;-67
2023/10/17 07:08:41;;;;;;;9.80;4.53;;;;;;;5.32;100.00;96356.94;5038405;28;20236;-69
2023/10/17 07:11:24;;;;;;;14.00;4.70;;;;;;;5.05;100.00;96356.03;5035773;28;20247;-71
2023/10/17 07:16:48;;;;;;;8.67;4.37;;;;;;;5.30;100.00;96366.69;5023231;28;20291;-71
2023/10/17 07:22:06;;;;;;;14.60;4.83;;;;;;;5.14;100.00;96376.09;5038092;28;20645;-67
2023/10/17 07:24:33;;;;;;;10.13;4.80;;;;;;;5.29;100.00;96369.47;5037821;28;20244;-71
2023/10/17 07:27:01;;;;;;;8.63;4.13;;;;;;;5.14;100.00;96376.94;5037465;28;20237;-69
2023/10/17 07:29:33;;;;;;;7.57;3.53;;;;;;;5.03;100.00;96381.50;5036937;28;20604;-69
2023/10/17 07:32:09;;;;;;;14.30;5.60;;;;;;;5.37;100.00;96383.44;5037540;28;20575;-69
2023/10/17 07:34:38;;;;;;;12.77;5.20;;;;;;;5.35;100.00;96377.53;5036933;28;20293;-71
2023/10/17 07:37:14;;;;;;;8.70;3.90;;;;;;;5.42;100.00;96370.78;5036027;28;20291;-71
2023/10/17 07:39:42;;;;;;;11.97;4.77;;;;;;;5.55;100.00;96371.31;5037029;28;20208;-70
2023/10/17 07:42:14;;;;;;;12.37;4.87;;;;;;;5.67;100.00;96375.38;5037838;28;20563;-71
2023/10/17 07:44:41;;;;;;;12.40;4.93;;;;;;;5.70;100.00;96372.47;5036948;28;20220;-69
2023/10/17 07:47:19;;;;;;;9.40;4.93;;;;;;;5.72;100.00;96373.16;5037017;28;20205;-71
2023/10/17 07:49:48;;;;;;;14.27;5.03;;;;;;;5.80;100.00;96368.06;5037094;28;20225;-71
2023/10/17 07:52:16;;;;;;;14.13;5.67;;;;;;;5.78;100.00;96369.97;5036333;28;20209;-71
2023/10/17 07:54:46;;;;;;;8.70;4.53;;;;;;;5.96;100.00;96382.16;5037029;28;20233;-69
2023/10/17 07:57:17;;;;;;;9.93;4.30;;;;;;;5.93;100.00;96374.59;5036557;28;20727;-69
2023/10/17 07:59:50;;;;;;;9.00;3.93;;;;;;;5.71;100.00;96384.56;5036171;28;20193;-70
2023/10/17 08:02:20;;;;;;;11.20;5.27;;;;;;;5.87;100.00;96372.56;5036783;28;20220;-70
2023/10/17 08:04:49;;;;;;;10.53;4.67;;;;;;;5.81;100.00;96377.53;5037223;28;20249;-70
2023/10/17 08:07:19;;;;;;;13.60;5.27;;;;;;;5.92;100.00;96370.34;5035929;28;20276;-71
2023/10/17 08:09:50;;;;;;;11.40;5.33;;;;;;;5.93;100.00;96365.91;5036241;28;20759;-70
2023/10/17 08:12:21;;;;;;;9.60;4.63;;;;;;;6.17;100.00;96380.94;5036319;28;20244;-71
2023/10/17 08:14:57;;;;;;;9.10;4.60;;;;;;;6.24;100.00;96375.94;5036693;28;20205;-69
2023/10/17 08:17:27;;;;;;;8.87;4.77;;;;;;;6.25;100.00;96370.53;5036237;28;20346;-71
2023/10/17 08:20:38;;;;;;;11.93;5.53;;;;;;;6.42;100.00;96364.50;5037577;28;20280;-71
2023/10/17 08:22:55;;;;;;;11.33;5.00;;;;;;;6.15;100.00;96372.41;5035449;28;20224;-71
2023/10/17 08:25:30;;;;;;;13.53;6.03;;;;;;;6.28;100.00;96369.44;5036853;28;20201;-71
2023/10/17 08:27:56;;;;;;;11.67;5.53;;;;;;;6.33;100.00;96367.19;5035960;28;20720;-70
2023/10/17 08:30:25;;;;;;;12.87;5.10;;;;;;;6.13;100.00;96366.47;5036243;28;20256;-67
2023/10/17 08:33:10;;;;;;;14.03;5.27;;;;;;;6.45;100.00;96368.63;5036207;28;20224;-69
2023/10/17 08:35:38;;;;;;;11.57;5.07;;;;;;;6.74;100.00;96367.41;5036699;28;20290;-72
2023/10/17 08:38:06;;;;;;;14.00;5.73;;;;;;;6.41;100.00;96365.47;5035784;28;20201;-72
2023/10/17 08:40:32;;;;;;;12.77;5.13;;;;;;;6.30;100.00;96370.09;5035912;28;20313;-73
2023/10/17 08:43:02;;;;;;;12.47;5.27;;;;;;;6.52;100.00;96375.72;5035767;28;20221;-72
2023/10/17 08:45:36;;;;;;;11.03;4.93;;;;;;;6.62;100.00;96375.63;5035911;28;20751;-70
2023/10/17 08:48:06;;;;;;;13.47;5.43;;;;;;;6.50;100.00;96382.09;5035569;28;20739;-72
2023/10/17 08:50:37;;;;;;;13.93;6.13;;;;;;;6.50;100.00;96371.63;5035686;28;20341;-71
2023/10/17 08:53:12;;;;;;;14.90;5.60;;;;;;;6.66;100.00;96372.59;5036151;28;20282;-70
2023/10/17 08:55:40;;;;;;;15.33;5.33;;;;;;;6.70;100.00;96377.38;5035956;28;20204;-72
2023/10/17 08:58:07;;;;;;;13.93;5.73;;;;;;;6.50;100.00;96364.56;5035660;28;20304;-71
2023/10/17 09:00:55;;;;;;;12.77;5.77;;;;;;;6.66;100.00;96362.13;5035429;28;20205;-72
2023/10/17 09:03:23;;;;;;;15.83;5.80;;;;;;;6.58;100.00;96371.69;5034747;28;20939;-69
2023/10/17 09:05:58;;;;;;;13.27;5.53;;;;;;;6.77;100.00;96372.34;5035884;28;20197;-73
2023/10/17 09:08:46;;;;;;;13.43;5.33;;;;;;;7.00;100.00;96365.66;5035220;28;20219;-74
2023/10/17 09:11:15;;;;;;;13.60;5.90;;;;;;;6.70;100.00;96368.69;5035461;28;20232;-73
2023/10/17 09:16:39;;;;;;;12.83;5.70;;;;;;;7.02;100.00;96359.28;5035090;28;20197;-70
2023/10/17 09:19:10;;;;;;;14.70;5.53;;;;;;;7.11;100.00;96361.00;5035261;28;20259;-70
2023/10/17 09:21:41;;;;;;;12.47;5.37;;;;;;;7.00;100.00;96360.41;5037251;28;20208;-69
2023/10/17 09:24:29;;;;;;;11.67;6.03;;;;;;;7.38;100.00;96351.22;5040225;28;20617;-72
2023/10/17 09:26:56;;;;;;;15.53;6.00;;;;;;;7.23;100.00;96357.16;5040041;28;21215;-70
2023/10/17 09:29:22;;;;;;;14.17;6.50;;;;;;;7.35;100.00;96354.13;5037978;28;20597;-67
2023/10/17 09:31:50;;;;;;;16.20;6.97;;;;;;;7.32;100.00;96351.00;5040616;28;20334;-72
2023/10/17 09:34:20;;;;;;;14.17;5.67;;;;;;;7.41;100.00;96350.88;5039595;28;20780;-68
2023/10/17 09:36:47;;;;;;;14.03;5.43;;;;;;;7.25;100.00;96352.59;5039373;28;20212;-73
2023/10/17 09:39:18;;;;;;;11.13;5.80;;;;;;;7.12;100.00;96360.03;5039380;28;20231;-69
2023/10/17 09:41:45;;;;;;;13.80;6.67;;;;;;;7.45;100.00;96349.59;5040510;28;20212;-72
2023/10/17 09:44:12;;;;;;;11.60;5.83;;;;;;;7.60;100.00;96350.66;5038766;28;20764;-69
2023/10/17 09:46:42;;;;;;;13.97;5.23;;;;;;;7.96;100.00;96341.66;5039441;28;20208;-73
2023/10/17 09:49:08;;;;;;;19.00;6.20;;;;;;;7.63;100.00;96349.53;5038541;28;20216;-70
2023/10/17 09:51:36;;;;;;;12.57;5.80;;;;;;;7.81;100.00;96350.28;5039355;28;20547;-68
2023/10/17 09:54:04;;;;;;;14.80;6.37;;;;;;;7.49;100.00;96348.31;5039306;28;20597;-68
2023/10/17 09:56:36;;;;;;;14.30;5.77;;;;;;;7.64;100.00;96335.44;5039069;28;20252;-67
2023/10/17 09:59:06;;;;;;;18.53;7.23;;;;;;;7.76;100.00;96332.38;5038710;28;20208;-69
2023/10/17 10:01:36;;;;;;;17.43;7.13;;;;;;;8.01;100.00;96329.69;5039088;28;20212;-68
2023/10/17 10:04:03;;;;;;;12.20;5.47;;;;;;;7.86;100.00;96330.47;5039344;28;20711;-70
2023/10/17 10:06:31;;;;;;;11.93;4.87;;;;;;;7.94;100.00;96327.84;5038014;28;20203;-68
2023/10/17 10:09:26;;;;;;;15.47;6.63;;;;;;;7.64;100.00;96325.78;5038748;28;20198;-70
2023/10/17 10:12:01;;;;;;;14.63;6.43;;;;;;;8.05;100.00;96336.25;5039188;28;20292;-71
2023/10/17 10:14:40;;;;;;;12.47;4.97;;;;;;;8.10;100.00;96328.72;5038645;28;20908;-68
2023/10/17 10:17:08;;;;;;;14.70;5.90;;;;;;;7.76;100.00;96335.00;5037915;28;20225;-70
2023/10/17 10:19:58;;;;;;;11.67;5.80;;;;;;;8.32;100.00;96325.53;5038802;28;20205;-68
2023/10/17 10:22:24;;;;;;;17.87;7.30;;;;;;;8.17;100.00;96335.03;5038204;28;20205;-68
2023/10/17 10:25:05;;;;;;;20.00;6.40;;;;;;;8.51;100.00;96336.59;5039167;28;20667;-69
2023/10/17 10:27:33;;;;;;;15.03;6.20;;;;;;;8.31;100.00;96331.78;5038161;28;20254;-68
2023/10/17 10:30:32;;;;;;;14.30;5.73;;;;;;;8.47;100.00;96331.00;5038244;28;20316;-69
2023/10/17 10:32:59;;;;;;;13.67;5.63;;;;;;;8.26;100.00;96339.31;5037873;28;20592;-68
2023/10/17 10:35:26;;;;;;;16.03;6.73;;;;;;;8.04;100.00;96337.25;5038588;28;20560;-68
2023/10/17 10:37:54;;;;;;;14.53;6.10;;;;;;;8.51;100.00;96333.13;5038005;28;20201;-68
2023/10/17 10:40:26;;;;;;;12.77;5.67;;;;;;;8.71;100.00;96319.50;5038105;28;21211;-68
2023/10/17 10:42:56;;;;;;;15.33;5.47;;;;;;;8.95;100.00;96326.56;5038969;28;20221;-67
2023/10/17 10:45:35;;;;;;;18.40;7.17;;;;;;;8.67;100.00;96323.47;5037621;28;20653;-68
2023/10/17 10:48:04;;;;;;;12.43;5.10;;;;;;;8.56;100.00;96317.69;5037934;28;20212;-68
2023/10/17 10:50:33;;;;;;;11.93;5.37;;;;;;;8.69;100.00;96311.00;5037883;28;20224;-70
2023/10/17 10:53:01;;;;;;;14.70;6.27;;;;;;;8.86;100.00;96314.41;5038563;28;20992;-69
2023/10/17 10:55:30;;;;;;;13.10;5.83;;;;;;;8.99;100.00;96318.19;5038138;28;20583;-68
2023/10/17 10:58:00;;;;;;;13.57;6.00;;;;;;;9.04;100.00;96315.91;5038446;28;20197;-68
2023/10/17 11:00:27;;;;;;;16.20;6.37;;;;;;;8.66;100.00;96310.50;5038058;28;20193;-70
2023/10/17 11:02:54;;;;;;;10.93;5.40;;;;;;;8.81;100.00;96316.75;5037800;28;20745;-71
2023/10/17 11:05:21;;;;;;;13.20;5.67;;;;;;;9.01;100.00;96305.69;5037825;28;20699;-70
2023/10/17 11:07:47;;;;;;;16.03;6.33;;;;;;;8.89;100.00;96311.47;5037720;28;20208;-69
2023/10/17 11:10:14;;;;;;;14.43;5.90;;;;;;;9.08;100.00;96314.59;5037080;28;20233;-68
2023/10/17 11:12:52;;;;;;;16.97;6.77;;;;;;;9.06;100.00;96306.03;5036970;28;20212;-68
2023/10/17 11:15:26;;;;;;;13.70;6.13;;;;;;;9.36;100.00;96306.16;5037968;28;20204;-68
2023/10/17 11:18:00;;;;;;;16.43;6.17;;;;;;;9.75;100.00;96304.41;5037165;28;20205;-68
2023/10/17 11:20:27;;;;;;;12.97;5.60;;;;;;;9.55;100.00;96302.34;5037372;28;21134;-69
2023/10/17 11:22:54;;;;;;;13.97;5.77;;;;;;;9.59;100.00;96295.75;5037448;28;20221;-68
2023/10/17 11:25:26;;;;;;;15.03;6.27;;;;;;;8.98;100.00;96305.22;5037711;28;20228;-71
2023/10/17 11:27:56;;;;;;;13.53;5.10;;;;;;;9.29;100.00;96305.19;5037537;28;20323;-68
2023/10/17 11:30:32;;;;;;;15.73;7.13;;;;;;;9.61;100.00;96293.75;5037059;28;20225;-70
2023/10/17 11:33:04;;;;;;;16.27;6.03;;;;;;;9.36;100.00;96297.44;5036602;28;20228;-68
2023/10/17 11:35:32;;;;;;;12.27;5.40;;;;;;;9.24;100.00;96304.03;5037368;28;20231;-67
2023/10/17 11:37:59;;;;;;;12.20;6.00;;;;;;;9.01;100.00;96299.63;5037893;28;20201;-69
2023/10/17 11:40:42;;;;;;;12.40;5.50;;;;;;;9.36;100.00;96285.13;5036530;28;20209;-68
2023/10/17 11:43:16;;;;;;;14.30;5.87;;;;;;;9.11;100.00;96286.16;5037195;28;20224;-70
2023/10/17 11:45:45;;;;;;;11.07;6.13;;;;;;;9.33;100.00;96292.50;5035807;28;20716;-68
2023/10/17 11:48:27;;;;;;;13.77;6.20;;;;;;;9.69;100.00;96292.72;5036079;28;20206;-68
2023/10/17 11:51:07;;;;;;;36.30;6.93;;;;;;;9.96;100.00;96297.56;5036824;28;20669;-68
2023/10/17 11:53:34;;;;;;;12.20;5.70;;;;;;;9.67;100.00;96299.16;5036945;28;20236;-67
2023/10/17 11:56:02;;;;;;;13.13;5.77;;;;;;;9.73;100.00;96299.28;5036391;28;20239;-68
2023/10/17 11:58:30;;;;;;;13.63;6.33;;;;;;;9.65;100.00;96295.88;5035380;28;20392;-69
2023/10/17 12:00:59;;;;;;;10.77;5.63;;;;;;;9.78;100.00;96285.63;5035839;28;20463;-67
2023/10/17 12:03:27;;;;;;;13.33;5.90;;;;;;;9.81;100.00;96286.13;5036620;28;20271;-69
2023/10/17 12:05:54;;;;;;;14.00;6.70;;;;;;;9.59;100.00;96280.78;5036596;28;20197;-68
2023/10/17 12:08:23;;;;;;;10.87;4.83;;;;;;;9.82;100.00;96281.66;5035452;28;20216;-69
2023/10/17 12:10:51;;;;;;;14.90;6.10;;;;;;;10.01;100.00;96276.81;5035692;28;20829;-69
2023/10/17 12:13:18;;;;;;;14.20;5.60;;;;;;;9.84;100.00;96280.50;5035798;28;20225;-69
2023/10/17 12:15:45;;;;;;;16.47;6.10;;;;;;;10.16;100.00;96280.38;5036300;28;20894;-67
2023/10/17 12:18:13;;;;;;;14.93;6.40;;;;;;;10.26;100.00;96278.34;5035977;28;20214;-69
2023/10/17 12:20:41;;;;;;;11.50;5.70;;;;;;;10.06;100.00;96278.97;5035519;28;20367;-69
2023/10/17 12:23:09;;;;;;;14.33;5.57;;;;;;;10.44;100.00;96268.34;5036074;28;20221;-68
2023/10/17 12:25:36;;;;;;;10.33;5.33;;;;;;;10.42;100.00;96271.16;5035295;28;20205;-69
2023/10/17 12:28:06;;;;;;;13.40;6.27;;;;;;;10.47;100.00;96263.53;5035609;28;20782;-68
2023/10/17 12:30:35;;;;;;;12.83;6.50;;;;;;;10.60;100.00;96257.69;5034954;28;20233;-68
2023/10/17 12:33:02;;;;;;;11.30;5.30;;;;;;;10.50;100.00;96267.63;5036283;28;20272;-68
2023/10/17 12:35:30;;;;;;;14.33;6.10;;;;;;;10.57;100.00;96263.31;5035360;28;20278;-69
2023/10/17 12:37:59;;;;;;;9.87;4.87;;;;;;;10.44;100.00;96263.88;5036010;28;20497;-68
2023/10/17 12:40:26;;;;;;;13.03;5.27;;;;;;;10.58;100.00;96257.84;5034943;28;20205;-68
2023/10/17 12:42:55;;;;;;;15.17;5.93;;;;;;;10.89;100.00;96247.22;5035226;28;20700;-68
2023/10/17 12:45:22;;;;;;;13.00;6.03;;;;;;;10.51;100.00;96242.94;5034630;28;20225;-68
2023/10/17 12:47:49;;;;;;;12.37;5.80;;;;;;;10.49;100.00;96244.94;5035887;28;20854;-69
2023/10/17 12:50:18;;;;;;;16.87;6.17;;;;;;;10.53;100.00;96230.41;5034836;28;20527;-69
2023/10/17 12:52:45;;;;;;;10.07;5.33;;;;;;;10.95;100.00;96237.59;5035202;28;20225;-69
2023/10/17 12:55:12;;;;;;;18.40;7.23;;;;;;;10.51;100.00;96242.94;5035903;28;20651;-68
2023/10/17 12:57:39;;;;;;;12.37;6.03;;;;;;;10.74;100.00;96236.63;5034851;28;20342;-68
2023/10/17 13:00:09;;;;;;;11.40;6.00;;;;;;;10.66;100.00;96231.44;5035050;28;20715;-69
2023/10/17 13:02:38;;;;;;;13.13;5.83;;;;;;;10.73;100.00;96236.81;5035806;28;20299;-68
2023/10/17 13:05:09;;;;;;;15.17;6.07;;;;;;;10.94;100.00;96241.22;5034923;28;20215;-69
2023/10/17 13:07:35;;;;;;;11.37;5.33;;;;;;;10.81;100.00;96234.13;5034990;28;20695;-69
2023/10/17 13:10:04;;;;;;;11.27;5.87;;;;;;;11.14;100.00;96226.53;5034135;28;20692;-69
2023/10/17 13:12:30;;;;;;;12.77;6.10;;;;;;;10.63;100.00;96231.00;5034814;28;20228;-69